Time;durP1;ratioP1;P1;durP2;ratioP2;P2;SDS_P1;SDS_P2;PMS_P1;PMS_P2;Temp;Humidity;BMP_temperature;BMP_pressure;BME280_temperature;BME280_humidity;BME280_pressure;Samples;Min_cycle;Max_cycle;Signal;HPM_P1;HPM_P2
2021/12/29 00:00:58;;;;;;;4.88;1.33;;;10.30;75.60;;;;;;5138502;27;20070;-72
2021/12/29 00:03:24;;;;;;;7.57;1.80;;;10.30;75.60;;;;;;5133184;27;20023;-72
2021/12/29 00:05:49;;;;;;;9.27;2.00;;;10.30;75.60;;;;;;5140359;27;20052;-72
2021/12/29 00:08:15;;;;;;;7.95;1.80;;;10.30;75.70;;;;;;5129343;27;20039;-72
2021/12/29 00:10:41;;;;;;;5.18;1.67;;;10.30;75.70;;;;;;5123205;27;20023;-72
2021/12/29 00:13:07;;;;;;;12.70;1.83;;;10.30;75.70;;;;;;5113006;27;20195;-72
2021/12/29 00:15:33;;;;;;;7.38;1.92;;;10.20;75.70;;;;;;5104129;27;20039;-72
2021/12/29 00:17:59;;;;;;;6.28;1.63;;;10.20;75.70;;;;;;5114251;27;20023;-72
2021/12/29 00:20:29;;;;;;;6.75;1.90;;;10.20;75.80;;;;;;5134119;27;20031;-73
2021/12/29 00:22:59;;;;;;;8.68;1.80;;;10.20;75.80;;;;;;5139756;27;20474;-72
2021/12/29 00:25:25;;;;;;;8.05;1.95;;;10.20;75.80;;;;;;5128947;27;20098;-73
2021/12/29 00:27:54;;;;;;;4.78;2.00;;;10.10;75.80;;;;;;5134710;27;20027;-73
2021/12/29 00:30:21;;;;;;;6.45;1.38;;;10.10;75.90;;;;;;5137500;27;20043;-73
2021/12/29 00:32:47;;;;;;;6.75;1.55;;;10.10;76.00;;;;;;5133138;27;20019;-73
2021/12/29 00:35:14;;;;;;;5.18;1.40;;;10.10;75.90;;;;;;5107073;28;20041;-75
2021/12/29 00:37:41;;;;;;;4.43;1.38;;;10.10;76.00;;;;;;5122058;27;20030;-75
2021/12/29 00:40:08;;;;;;;9.32;1.73;;;10.10;76.00;;;;;;5097377;28;20522;-75
2021/12/29 00:42:34;;;;;;;4.53;1.27;;;10.00;76.00;;;;;;5131426;28;20023;-75
2021/12/29 00:44:59;;;;;;;5.38;1.40;;;10.00;75.90;;;;;;5121967;27;20026;-75
2021/12/29 00:47:29;;;;;;;5.35;1.75;;;10.00;76.00;;;;;;5125909;27;20031;-75
2021/12/29 00:49:55;;;;;;;5.43;1.40;;;10.00;75.90;;;;;;5118402;27;20472;-75
2021/12/29 00:52:21;;;;;;;6.35;1.80;;;10.00;76.00;;;;;;5099618;28;20065;-75
2021/12/29 00:54:46;;;;;;;5.47;1.52;;;10.00;75.80;;;;;;5128933;27;20027;-74
2021/12/29 00:57:12;;;;;;;7.90;1.60;;;10.00;76.00;;;;;;5103381;28;20563;-74
2021/12/29 00:59:38;;;;;;;6.88;1.63;;;10.00;76.00;;;;;;5118158;27;20115;-75
2021/12/29 01:02:05;;;;;;;3.58;1.02;;;10.00;76.00;;;;;;5122690;27;20075;-75
2021/12/29 01:04:31;;;;;;;5.15;1.17;;;10.00;76.00;;;;;;5129714;28;20038;-75
2021/12/29 01:06:57;;;;;;;3.13;1.15;;;10.00;75.90;;;;;;5127312;27;20102;-75
2021/12/29 01:09:23;;;;;;;4.00;1.20;;;10.00;76.00;;;;;;5130086;27;20498;-75
2021/12/29 01:11:48;;;;;;;7.50;1.50;;;10.00;76.00;;;;;;5131423;27;20023;-75
2021/12/29 01:14:21;;;;;;;5.68;1.20;;;10.00;76.00;;;;;;5126444;27;20595;-75
2021/12/29 01:16:47;;;;;;;5.03;1.27;;;10.00;76.00;;;;;;5131857;27;20478;-73
2021/12/29 01:19:14;;;;;;;6.00;1.13;;;10.00;76.00;;;;;;5114188;28;20027;-75
2021/12/29 01:21:45;;;;;;;5.78;1.33;;;10.00;76.70;;;;;;5132480;27;20034;-74
2021/12/29 01:24:12;;;;;;;4.63;1.40;;;10.00;76.00;;;;;;5115470;27;20073;-75
2021/12/29 01:26:39;;;;;;;3.70;1.20;;;10.00;76.00;;;;;;5128213;27;20026;-75
2021/12/29 01:29:05;;;;;;;7.03;1.38;;;10.00;76.00;;;;;;5115823;27;20022;-73
2021/12/29 01:31:31;;;;;;;2.80;1.38;;;10.00;75.80;;;;;;5116506;27;20232;-74
2021/12/29 01:33:58;;;;;;;5.30;1.42;;;10.10;75.90;;;;;;5135500;27;20380;-74
2021/12/29 01:36:23;;;;;;;3.65;1.10;;;10.10;76.00;;;;;;5131492;27;20055;-74
2021/12/29 01:38:49;;;;;;;1.65;0.90;;;10.10;75.80;;;;;;5118095;27;20019;-74
2021/12/29 01:41:14;;;;;;;3.65;1.20;;;10.10;75.80;;;;;;5136943;27;20475;-74
2021/12/29 01:43:40;;;;;;;5.15;1.17;;;10.10;75.60;;;;;;5141786;27;20517;-74
2021/12/29 01:46:06;;;;;;;5.40;1.10;;;10.10;75.50;;;;;;5120797;27;20031;-74
2021/12/29 01:48:31;;;;;;;4.97;1.20;;;10.10;75.40;;;;;;5143889;27;20034;-74
2021/12/29 01:50:59;;;;;;;0.80;0.75;;;10.20;75.20;;;;;;5133218;27;20027;-75
2021/12/29 01:53:31;;;;;;;2.85;1.05;;;10.20;75.40;;;;;;5143445;27;20120;-75
2021/12/29 01:55:57;;;;;;;4.03;0.95;;;10.20;75.30;;;;;;5144769;27;20023;-74
2021/12/29 01:58:24;;;;;;;1.13;0.75;;;10.20;75.00;;;;;;5124828;27;20052;-74
2021/12/29 02:00:52;;;;;;;4.55;1.17;;;10.20;75.00;;;;;;5118847;27;20027;-74
2021/12/29 02:03:18;;;;;;;4.03;1.20;;;10.30;75.10;;;;;;5115169;27;20038;-74
2021/12/29 02:05:44;;;;;;;3.35;1.00;;;10.30;75.00;;;;;;5120217;27;20023;-74
2021/12/29 02:08:10;;;;;;;3.30;1.00;;;10.30;75.00;;;;;;5138068;27;20522;-75
2021/12/29 02:10:46;;;;;;;2.00;1.08;;;10.30;74.60;;;;;;5120091;27;20026;-75
2021/12/29 02:13:12;;;;;;;3.00;1.10;;;10.30;74.60;;;;;;5129437;27;20030;-73
2021/12/29 02:15:38;;;;;;;3.95;1.00;;;10.40;74.70;;;;;;5140354;27;20054;-74
2021/12/29 02:18:12;;;;;;;2.42;1.00;;;10.40;74.50;;;;;;5146766;27;20462;-74
2021/12/29 02:20:38;;;;;;;1.52;0.93;;;10.40;74.50;;;;;;5140946;27;20035;-73
2021/12/29 02:23:15;;;;;;;4.03;0.90;;;10.40;74.60;;;;;;5122788;27;20476;-73
2021/12/29 02:25:52;;;;;;;1.48;0.93;;;10.40;74.60;;;;;;5142245;27;20039;-73
2021/12/29 02:28:23;;;;;;;1.85;0.90;;;10.40;74.60;;;;;;5103363;27;20107;-75
2021/12/29 02:30:49;;;;;;;2.78;0.90;;;10.40;74.20;;;;;;5110389;27;20048;-75
2021/12/29 02:33:16;;;;;;;3.88;0.93;;;10.40;74.50;;;;;;5122039;27;20028;-75
2021/12/29 02:35:42;;;;;;;2.17;0.80;;;10.40;74.50;;;;;;5105661;27;20074;-75
2021/12/29 02:38:47;;;;;;;4.35;0.90;;;10.40;74.70;;;;;;5113597;27;20089;-74
2021/12/29 02:41:13;;;;;;;1.13;0.70;;;10.40;74.70;;;;;;5105738;28;20489;-74
2021/12/29 02:43:40;;;;;;;3.95;0.90;;;10.40;74.80;;;;;;5112235;27;20549;-74
2021/12/29 02:46:11;;;;;;;1.65;0.60;;;10.30;74.70;;;;;;5113804;28;20059;-75
2021/12/29 02:48:45;;;;;;;1.75;0.75;;;10.30;74.80;;;;;;5108672;28;20471;-74
2021/12/29 02:51:11;;;;;;;1.65;0.80;;;10.30;74.90;;;;;;5111804;27;20023;-75
2021/12/29 02:53:37;;;;;;;1.35;0.80;;;10.30;75.00;;;;;;5107685;27;20040;-74
2021/12/29 02:56:04;;;;;;;3.28;0.90;;;10.30;75.10;;;;;;5110353;27;20035;-74
2021/12/29 02:58:31;;;;;;;2.45;0.90;;;10.20;75.00;;;;;;5114565;27;20022;-73
2021/12/29 03:00:59;;;;;;;1.48;0.80;;;10.20;75.20;;;;;;5118937;27;20033;-74
2021/12/29 03:03:28;;;;;;;3.53;0.90;;;10.20;75.20;;;;;;5105011;28;20475;-74
2021/12/29 03:05:54;;;;;;;1.45;0.80;;;10.20;75.30;;;;;;5113221;27;20041;-74
2021/12/29 03:08:21;;;;;;;1.65;0.75;;;10.20;75.30;;;;;;5105451;27;20411;-74
2021/12/29 03:10:52;;;;;;;3.13;0.90;;;10.20;75.40;;;;;;5109947;27;20519;-75
2021/12/29 03:13:19;;;;;;;2.40;1.00;;;10.20;75.50;;;;;;5132465;27;20114;-74
2021/12/29 03:15:45;;;;;;;3.85;1.40;;;10.20;75.30;;;;;;5125241;27;20038;-75
2021/12/29 03:18:11;;;;;;;2.08;1.25;;;10.10;75.30;;;;;;5128802;27;20023;-74
2021/12/29 03:20:36;;;;;;;2.10;1.00;;;10.10;75.40;;;;;;5111175;27;20390;-74
2021/12/29 03:23:02;;;;;;;2.55;1.00;;;10.20;75.40;;;;;;5113646;27;20042;-74
2021/12/29 03:25:28;;;;;;;2.72;1.00;;;10.10;75.40;;;;;;5111478;27;20110;-74
2021/12/29 03:28:01;;;;;;;3.22;0.95;;;10.20;75.40;;;;;;5113790;27;20556;-74
2021/12/29 03:30:29;;;;;;;1.48;0.90;;;10.20;75.40;;;;;;5124559;27;20035;-73
2021/12/29 03:33:03;;;;;;;1.58;0.80;;;10.20;75.30;;;;;;5133451;27;20066;-74
2021/12/29 03:35:38;;;;;;;2.83;0.90;;;10.20;75.30;;;;;;5130555;27;20061;-73
2021/12/29 03:38:06;;;;;;;2.85;1.10;;;10.20;75.20;;;;;;5115995;27;20448;-74
2021/12/29 03:40:31;;;;;;;2.40;1.00;;;10.20;75.30;;;;;;5124562;27;20061;-74
2021/12/29 03:42:57;;;;;;;2.40;0.80;;;10.20;75.20;;;;;;5121220;27;20066;-75
2021/12/29 03:45:23;;;;;;;2.47;0.98;;;10.20;75.30;;;;;;5146673;27;20034;-75
2021/12/29 03:47:50;;;;;;;1.52;0.80;;;10.20;75.10;;;;;;5119724;27;20067;-74
2021/12/29 03:50:15;;;;;;;1.30;0.70;;;10.20;75.30;;;;;;5122404;27;20111;-74
2021/12/29 03:52:42;;;;;;;2.50;0.77;;;10.20;75.20;;;;;;5139077;27;20156;-74
2021/12/29 03:55:09;;;;;;;1.42;1.00;;;10.20;75.20;;;;;;5138053;27;20463;-73
2021/12/29 03:57:35;;;;;;;0.65;0.65;;;10.20;75.10;;;;;;5131465;27;20031;-73
2021/12/29 04:00:03;;;;;;;3.13;1.27;;;10.20;75.20;;;;;;5112889;27;20459;-74
2021/12/29 04:02:29;;;;;;;1.95;0.90;;;10.20;75.10;;;;;;5126051;27;20035;-74
2021/12/29 04:04:55;;;;;;;1.77;0.80;;;10.20;75.00;;;;;;5141229;27;20023;-74
2021/12/29 04:07:20;;;;;;;1.25;0.82;;;10.20;75.10;;;;;;5123347;27;20038;-74
2021/12/29 04:09:46;;;;;;;2.72;0.93;;;10.20;74.90;;;;;;5134434;27;20027;-74
2021/12/29 04:12:12;;;;;;;1.25;0.80;;;10.20;74.80;;;;;;5144650;27;20110;-74
2021/12/29 04:14:38;;;;;;;3.50;0.80;;;10.20;74.80;;;;;;5133503;27;20122;-74
2021/12/29 04:17:09;;;;;;;1.75;0.80;;;10.20;75.00;;;;;;5122696;27;20205;-74
2021/12/29 04:22:21;;;;;;;2.22;0.80;;;10.20;75.00;;;;;;5128091;27;20497;-74
2021/12/29 04:24:47;;;;;;;2.00;1.00;;;10.20;74.90;;;;;;5128928;27;20031;-74
2021/12/29 04:27:13;;;;;;;1.60;0.98;;;10.20;74.90;;;;;;5129667;27;20022;-74
2021/12/29 04:29:38;;;;;;;1.33;0.80;;;10.20;75.00;;;;;;5131954;27;20047;-73
2021/12/29 04:32:04;;;;;;;4.03;1.00;;;10.20;75.00;;;;;;5126730;27;20038;-74
2021/12/29 04:34:30;;;;;;;2.90;1.10;;;10.20;75.00;;;;;;5115996;27;20543;-74
2021/12/29 04:36:55;;;;;;;2.03;0.95;;;10.20;75.00;;;;;;5116864;27;20033;-74
2021/12/29 04:39:21;;;;;;;2.38;0.80;;;10.20;75.10;;;;;;5133498;27;20103;-74
2021/12/29 04:41:47;;;;;;;3.80;1.33;;;10.20;75.10;;;;;;5135426;27;20379;-74
2021/12/29 04:44:12;;;;;;;1.77;0.73;;;10.10;75.10;;;;;;5119536;28;20023;-74
2021/12/29 04:46:40;;;;;;;4.43;0.90;;;10.10;75.20;;;;;;5127274;27;20031;-74
2021/12/29 04:49:10;;;;;;;2.05;0.90;;;10.10;75.30;;;;;;5129045;28;20114;-74
2021/12/29 04:51:43;;;;;;;1.20;0.70;;;10.10;75.40;;;;;;5112469;28;20097;-74
2021/12/29 04:54:08;;;;;;;0.82;0.73;;;10.10;75.50;;;;;;5101746;28;20383;-74
2021/12/29 04:56:35;;;;;;;1.80;0.90;;;10.10;75.70;;;;;;5130757;27;20050;-74
2021/12/29 04:59:01;;;;;;;1.67;1.05;;;10.10;75.70;;;;;;5113070;28;20058;-74
2021/12/29 05:01:27;;;;;;;1.05;0.70;;;10.10;75.70;;;;;;5103116;28;20049;-74
2021/12/29 05:03:54;;;;;;;0.70;0.65;;;10.10;75.70;;;;;;5130874;27;20019;-74
2021/12/29 05:09:03;;;;;;;0.90;0.70;;;10.10;76.00;;;;;;5138089;27;20080;-74
2021/12/29 05:11:29;;;;;;;0.80;0.70;;;10.10;76.10;;;;;;5142401;27;20027;-74
2021/12/29 05:13:55;;;;;;;0.75;0.73;;;10.10;76.20;;;;;;5115608;27;20035;-74
2021/12/29 05:16:26;;;;;;;1.13;0.70;;;10.10;76.20;;;;;;5120808;27;20031;-74
2021/12/29 05:18:51;;;;;;;0.70;0.70;;;10.20;76.20;;;;;;5141221;27;20061;-74
2021/12/29 05:21:17;;;;;;;1.95;0.80;;;10.10;76.30;;;;;;5143367;27;20435;-73
2021/12/29 05:23:43;;;;;;;0.60;0.60;;;10.10;76.20;;;;;;5128916;27;20027;-74
2021/12/29 05:26:08;;;;;;;1.05;0.68;;;10.20;76.50;;;;;;5098481;27;20028;-73
2021/12/29 05:28:34;;;;;;;1.02;0.70;;;10.10;76.30;;;;;;5128862;27;20050;-73
2021/12/29 05:31:00;;;;;;;1.58;0.80;;;10.10;76.30;;;;;;5143235;27;20042;-73
2021/12/29 05:33:25;;;;;;;1.10;0.70;;;10.10;76.50;;;;;;5136048;27;20071;-73
2021/12/29 05:35:51;;;;;;;1.17;0.80;;;10.10;76.60;;;;;;5135087;27;20402;-74
2021/12/29 05:38:17;;;;;;;3.10;0.70;;;10.10;76.70;;;;;;5117709;27;20028;-73
2021/12/29 05:40:44;;;;;;;0.75;0.75;;;10.10;76.70;;;;;;5127997;27;20389;-72
2021/12/29 05:43:09;;;;;;;0.95;0.68;;;10.20;76.80;;;;;;5136387;27;20167;-73
2021/12/29 05:45:35;;;;;;;1.77;0.80;;;10.20;76.80;;;;;;5140944;27;20482;-73
2021/12/29 05:48:01;;;;;;;1.95;0.90;;;10.20;76.70;;;;;;5133898;27;20417;-73
2021/12/29 05:50:30;;;;;;;3.22;1.05;;;10.20;76.70;;;;;;5136563;27;20027;-73
2021/12/29 05:52:56;;;;;;;1.45;0.70;;;10.20;76.70;;;;;;5122917;27;20138;-73
2021/12/29 05:55:22;;;;;;;0.73;0.73;;;10.20;76.70;;;;;;5133359;27;20031;-75
2021/12/29 05:57:48;;;;;;;2.42;1.10;;;10.20;76.90;;;;;;5124417;27;20407;-73
2021/12/29 06:00:16;;;;;;;1.67;0.90;;;10.20;77.00;;;;;;5141347;27;20056;-74
2021/12/29 06:02:43;;;;;;;1.38;0.70;;;10.20;77.00;;;;;;5106258;27;20472;-74
2021/12/29 06:05:09;;;;;;;1.27;0.60;;;10.20;76.90;;;;;;5132352;27;20483;-74
2021/12/29 06:07:35;;;;;;;1.50;0.90;;;10.20;76.80;;;;;;5139951;27;20045;-74
2021/12/29 06:10:02;;;;;;;0.60;0.60;;;10.20;76.90;;;;;;5122002;27;20110;-73
2021/12/29 06:12:28;;;;;;;2.05;0.80;;;10.20;76.90;;;;;;5134425;27;20413;-73
2021/12/29 06:14:54;;;;;;;2.05;0.88;;;10.20;76.90;;;;;;5127779;27;20094;-74
2021/12/29 06:17:20;;;;;;;0.85;0.70;;;10.20;77.00;;;;;;5121160;27;20713;-74
2021/12/29 06:19:46;;;;;;;0.88;0.70;;;10.20;77.10;;;;;;5134818;27;20097;-74
2021/12/29 06:22:12;;;;;;;1.55;0.60;;;10.20;77.20;;;;;;5140657;27;20065;-74
2021/12/29 06:24:38;;;;;;;1.75;0.90;;;10.20;77.00;;;;;;5138496;27;20019;-73
2021/12/29 06:27:04;;;;;;;1.02;0.70;;;10.20;77.10;;;;;;5130823;27;20076;-73
2021/12/29 06:29:31;;;;;;;1.40;0.70;;;10.20;77.80;;;;;;5138311;27;20567;-73
2021/12/29 06:31:56;;;;;;;1.50;0.60;;;10.20;77.10;;;;;;5138418;27;20033;-73
2021/12/29 06:34:22;;;;;;;0.73;0.70;;;10.20;77.20;;;;;;5113552;27;20110;-74
2021/12/29 06:36:48;;;;;;;1.65;0.85;;;10.20;77.20;;;;;;5138057;27;20034;-74
2021/12/29 06:39:14;;;;;;;1.25;0.77;;;10.20;77.20;;;;;;5133712;27;20436;-74
2021/12/29 06:41:40;;;;;;;1.02;0.80;;;10.20;77.20;;;;;;5131189;27;20511;-74
2021/12/29 06:44:07;;;;;;;1.60;0.85;;;10.20;77.30;;;;;;5132902;27;20058;-74
2021/12/29 06:46:34;;;;;;;0.90;0.80;;;10.20;77.40;;;;;;5130970;27;20047;-73
2021/12/29 06:49:00;;;;;;;0.65;0.65;;;10.20;77.20;;;;;;5137395;27;20098;-74
2021/12/29 06:51:26;;;;;;;0.77;0.70;;;10.20;77.20;;;;;;5126371;27;20111;-74
2021/12/29 06:53:51;;;;;;;1.42;0.68;;;10.20;77.10;;;;;;5115326;27;20114;-74
2021/12/29 06:56:17;;;;;;;1.90;0.75;;;10.20;77.00;;;;;;5145696;27;20144;-74
2021/12/29 06:58:43;;;;;;;1.55;0.80;;;10.20;77.00;;;;;;5118264;27;20023;-74
2021/12/29 07:01:09;;;;;;;2.88;1.00;;;10.20;76.90;;;;;;5132196;27;20474;-74
2021/12/29 07:03:34;;;;;;;3.45;0.90;;;10.20;76.90;;;;;;5141151;27;20352;-73
2021/12/29 07:06:00;;;;;;;2.58;1.10;;;10.20;76.80;;;;;;5138415;27;20027;-71
2021/12/29 07:08:26;;;;;;;1.75;0.95;;;10.20;76.80;;;;;;5138151;27;20015;-70
2021/12/29 07:10:52;;;;;;;1.77;0.90;;;10.10;76.60;;;;;;5140705;27;20075;-70
2021/12/29 07:13:17;;;;;;;1.98;1.00;;;10.10;76.60;;;;;;5131871;27;20372;-71
2021/12/29 07:15:43;;;;;;;1.45;1.10;;;10.10;76.50;;;;;;5107877;27;20364;-70
2021/12/29 07:18:09;;;;;;;1.75;1.02;;;10.10;76.50;;;;;;5117799;27;20463;-70
2021/12/29 07:20:35;;;;;;;2.15;1.00;;;10.10;76.60;;;;;;5125068;27;20380;-70
2021/12/29 07:23:01;;;;;;;1.15;0.70;;;10.10;76.60;;;;;;5100495;27;20030;-70
2021/12/29 07:25:29;;;;;;;2.60;1.10;;;10.10;76.70;;;;;;5138410;27;20022;-71
2021/12/29 07:27:55;;;;;;;2.03;0.75;;;10.10;76.70;;;;;;5135730;27;20084;-71
2021/12/29 07:30:22;;;;;;;0.93;0.70;;;10.10;76.70;;;;;;5114535;27;20066;-71
2021/12/29 07:32:47;;;;;;;1.42;0.80;;;10.10;76.70;;;;;;5132177;27;20104;-70
2021/12/29 07:35:14;;;;;;;0.73;0.73;;;10.10;76.70;;;;;;5131964;27;20071;-71
2021/12/29 07:37:39;;;;;;;2.38;1.05;;;10.10;76.60;;;;;;5131985;27;20553;-70
2021/12/29 07:40:08;;;;;;;2.35;0.90;;;10.10;76.60;;;;;;5109984;28;20110;-71
2021/12/29 07:42:36;;;;;;;1.13;0.90;;;10.10;76.60;;;;;;5113566;28;20019;-70
2021/12/29 07:45:06;;;;;;;3.47;1.33;;;10.10;76.60;;;;;;5122802;27;20360;-71
2021/12/29 07:47:38;;;;;;;4.15;1.65;;;10.10;76.60;;;;;;5125452;27;20019;-71
2021/12/29 07:50:05;;;;;;;3.90;2.10;;;10.10;76.60;;;;;;5102510;27;20051;-71
2021/12/29 07:52:30;;;;;;;5.03;3.25;;;10.10;76.60;;;;;;5130102;27;20015;-71
2021/12/29 07:54:56;;;;;;;3.42;1.88;;;10.10;76.60;;;;;;5101092;28;20046;-71
2021/12/29 07:57:22;;;;;;;4.03;1.70;;;10.00;76.60;;;;;;5107069;27;20027;-71
2021/12/29 07:59:48;;;;;;;3.13;1.27;;;10.00;76.70;;;;;;5118719;27;20031;-71
2021/12/29 08:02:17;;;;;;;3.45;1.55;;;10.00;76.80;;;;;;5114493;28;20475;-70
2021/12/29 08:04:43;;;;;;;5.32;1.67;;;10.00;76.80;;;;;;5129297;27;20050;-71
2021/12/29 08:07:09;;;;;;;2.65;1.50;;;10.00;76.80;;;;;;5129953;27;20019;-71
2021/12/29 08:09:35;;;;;;;2.22;1.60;;;10.00;76.90;;;;;;5115630;27;20030;-71
2021/12/29 08:12:01;;;;;;;4.40;2.38;;;10.00;77.00;;;;;;5103749;27;20456;-71
2021/12/29 08:14:26;;;;;;;2.55;1.80;;;10.00;77.00;;;;;;5123740;27;20042;-70
2021/12/29 08:16:52;;;;;;;4.00;1.80;;;10.00;77.00;;;;;;5128142;27;20035;-70
2021/12/29 08:19:17;;;;;;;3.92;1.77;;;10.00;77.00;;;;;;5127985;27;20031;-71
2021/12/29 08:21:43;;;;;;;3.10;1.85;;;10.10;77.10;;;;;;5133370;27;20509;-71
2021/12/29 08:24:09;;;;;;;2.65;1.50;;;10.10;77.10;;;;;;5114441;27;20027;-70
2021/12/29 08:26:35;;;;;;;3.67;1.50;;;10.10;77.10;;;;;;5132814;27;20023;-71
2021/12/29 08:29:01;;;;;;;4.97;2.78;;;10.10;77.10;;;;;;5124436;27;20023;-69
2021/12/29 08:31:27;;;;;;;2.97;1.70;;;10.10;77.00;;;;;;5122163;27;20068;-70
2021/12/29 08:33:54;;;;;;;3.33;1.50;;;10.10;77.10;;;;;;5118544;27;20019;-70
2021/12/29 08:36:20;;;;;;;2.78;1.50;;;10.10;77.10;;;;;;5131420;27;20031;-70
2021/12/29 08:38:46;;;;;;;2.95;1.60;;;10.20;77.20;;;;;;5116515;27;20019;-70
2021/12/29 08:41:12;;;;;;;1.27;1.02;;;10.20;77.20;;;;;;5149322;27;20107;-71
2021/12/29 08:43:37;;;;;;;1.65;1.10;;;10.20;77.10;;;;;;5141611;27;20116;-71
2021/12/29 08:46:03;;;;;;;3.53;2.03;;;10.20;77.20;;;;;;5144295;27;20471;-70
2021/12/29 08:48:29;;;;;;;2.50;1.40;;;10.30;77.30;;;;;;5126734;27;20023;-71
2021/12/29 08:50:59;;;;;;;0.88;0.85;;;10.30;77.30;;;;;;5113909;27;20038;-70
2021/12/29 08:53:25;;;;;;;1.02;0.80;;;10.30;77.20;;;;;;5151452;27;20558;-70
2021/12/29 08:55:51;;;;;;;0.77;0.65;;;10.30;77.30;;;;;;5111127;27;20491;-70
2021/12/29 08:58:18;;;;;;;5.00;3.17;;;10.40;77.40;;;;;;5141694;27;20076;-70
2021/12/29 09:00:44;;;;;;;5.55;3.50;;;10.40;77.50;;;;;;5130020;27;20023;-70
2021/12/29 09:03:10;;;;;;;1.80;1.27;;;10.40;77.60;;;;;;5119454;27;20055;-71
2021/12/29 09:05:36;;;;;;;1.15;1.02;;;10.50;77.40;;;;;;5135891;27;20110;-70
2021/12/29 09:08:03;;;;;;;1.80;1.25;;;10.50;77.30;;;;;;5128217;27;20027;-70
2021/12/29 09:10:28;;;;;;;1.27;0.85;;;10.50;77.30;;;;;;5101265;27;20031;-70
2021/12/29 09:12:55;;;;;;;1.58;0.82;;;10.60;77.20;;;;;;5101053;27;20475;-70
2021/12/29 09:15:23;;;;;;;1.08;0.90;;;10.60;77.20;;;;;;5131102;27;20391;-72
2021/12/29 09:17:49;;;;;;;1.48;0.98;;;10.60;77.10;;;;;;5134271;27;20089;-74
2021/12/29 09:20:24;;;;;;;3.55;1.30;;;10.70;77.20;;;;;;5132669;27;20487;-75
2021/12/29 09:22:51;;;;;;;0.75;0.65;;;10.70;77.20;;;;;;5121416;27;20055;-73
2021/12/29 09:25:19;;;;;;;1.85;0.80;;;10.70;76.90;;;;;;5123939;27;20024;-73
2021/12/29 09:27:49;;;;;;;0.70;0.70;;;10.70;76.70;;;;;;5128740;27;20046;-74
2021/12/29 09:30:17;;;;;;;0.75;0.57;;;10.70;76.70;;;;;;5115472;27;20035;-70
2021/12/29 09:32:43;;;;;;;0.40;0.40;;;10.70;76.60;;;;;;5111789;27;20023;-70
2021/12/29 09:35:09;;;;;;;10.68;8.57;;;10.60;76.60;;;;;;5097713;27;20150;-71
2021/12/29 09:37:34;;;;;;;1.45;1.35;;;10.60;76.60;;;;;;5114561;27;20036;-71
2021/12/29 09:40:01;;;;;;;1.08;0.80;;;10.60;77.30;;;;;;5105728;27;20057;-71
2021/12/29 09:42:27;;;;;;;1.05;1.00;;;10.60;76.60;;;;;;5114944;27;20493;-70
2021/12/29 09:44:53;;;;;;;1.10;1.00;;;10.60;76.70;;;;;;5115194;27;20662;-71
2021/12/29 09:47:19;;;;;;;3.42;0.60;;;10.60;76.70;;;;;;5127697;27;20034;-72
2021/12/29 09:49:45;;;;;;;1.45;1.00;;;10.60;76.60;;;;;;5098376;27;20042;-71
2021/12/29 09:52:11;;;;;;;1.20;0.63;;;10.60;76.40;;;;;;5111114;27;20035;-74
2021/12/29 09:54:36;;;;;;;1.40;0.60;;;10.60;76.50;;;;;;5109332;27;20050;-72
2021/12/29 09:57:03;;;;;;;0.60;0.60;;;10.60;76.50;;;;;;5085645;27;20704;-71
2021/12/29 09:59:29;;;;;;;0.98;0.70;;;10.60;76.60;;;;;;5099639;27;20026;-71
2021/12/29 10:01:57;;;;;;;2.05;0.70;;;10.70;76.30;;;;;;5099099;27;20780;-72
2021/12/29 10:04:23;;;;;;;1.23;0.60;;;10.70;76.10;;;;;;5084959;27;20841;-72
2021/12/29 10:06:49;;;;;;;1.67;0.75;;;10.70;76.10;;;;;;5108260;27;20031;-70
2021/12/29 10:09:16;;;;;;;1.92;0.70;;;10.70;76.10;;;;;;5091973;27;20510;-70
2021/12/29 10:11:45;;;;;;;4.35;3.25;;;10.70;76.00;;;;;;5110245;27;20031;-70
2021/12/29 10:14:14;;;;;;;1.67;1.48;;;10.70;76.00;;;;;;5111979;27;20240;-70
2021/12/29 10:16:43;;;;;;;3.60;1.85;;;10.80;76.30;;;;;;5112548;27;20171;-70
2021/12/29 10:19:14;;;;;;;4.05;0.95;;;10.80;76.50;;;;;;5090447;27;20051;-70
2021/12/29 10:21:46;;;;;;;1.45;0.80;;;10.80;76.40;;;;;;5118388;27;20019;-72
2021/12/29 10:24:13;;;;;;;1.85;0.90;;;10.90;76.00;;;;;;5090032;27;20037;-72
2021/12/29 10:26:43;;;;;;;0.98;0.85;;;10.90;76.10;;;;;;5093196;27;20043;-72
2021/12/29 10:29:13;;;;;;;1.45;1.10;;;10.90;76.10;;;;;;5126204;27;20028;-71
2021/12/29 10:31:45;;;;;;;1.33;1.00;;;11.00;76.10;;;;;;5113563;27;20444;-72
2021/12/29 10:34:14;;;;;;;2.28;0.75;;;11.00;76.00;;;;;;5131521;27;20091;-71
2021/12/29 10:36:53;;;;;;;2.67;0.70;;;11.10;75.80;;;;;;5133095;27;20071;-71
2021/12/29 10:39:26;;;;;;;3.00;0.80;;;11.10;75.60;;;;;;5127699;27;20436;-71
2021/12/29 10:42:02;;;;;;;1.75;0.70;;;11.10;75.50;;;;;;5122208;27;20035;-71
2021/12/29 10:44:41;;;;;;;2.58;1.00;;;11.10;75.50;;;;;;5131361;27;20068;-70
2021/12/29 10:47:19;;;;;;;2.72;0.85;;;11.10;75.50;;;;;;5127241;27;20027;-72
2021/12/29 10:50:00;;;;;;;1.50;0.73;;;11.10;75.70;;;;;;5133804;27;20023;-72
2021/12/29 10:52:39;;;;;;;2.83;0.90;;;11.20;75.70;;;;;;5111872;27;20387;-72
2021/12/29 10:55:16;;;;;;;5.50;2.95;;;11.20;75.60;;;;;;5132355;27;20031;-71
2021/12/29 10:57:42;;;;;;;3.22;1.20;;;11.30;75.90;;;;;;5128777;27;20033;-71
2021/12/29 11:00:14;;;;;;;1.00;0.85;;;11.30;76.00;;;;;;5131673;27;20374;-71
2021/12/29 11:02:40;;;;;;;1.90;0.90;;;11.30;75.90;;;;;;5109286;27;20063;-73
2021/12/29 11:05:09;;;;;;;8.82;1.42;;;11.40;75.90;;;;;;5133197;27;20031;-71
2021/12/29 11:07:37;;;;;;;2.63;0.73;;;11.50;75.90;;;;;;5111847;27;20019;-71
2021/12/29 11:10:17;;;;;;;1.98;0.98;;;11.50;75.90;;;;;;5129510;27;20062;-72
2021/12/29 11:12:49;;;;;;;2.83;0.80;;;11.50;75.40;;;;;;5131637;27;20116;-72
2021/12/29 11:15:21;;;;;;;1.67;1.00;;;11.60;75.40;;;;;;5132395;27;20058;-71
2021/12/29 11:17:47;;;;;;;2.83;0.98;;;11.60;75.30;;;;;;5131386;27;20042;-72
2021/12/29 11:20:18;;;;;;;2.00;1.08;;;11.70;75.50;;;;;;5132121;27;20027;-71
2021/12/29 11:22:45;;;;;;;2.75;0.90;;;11.80;75.60;;;;;;5132862;27;20072;-72
2021/12/29 11:25:11;;;;;;;2.63;1.08;;;11.80;75.60;;;;;;5133974;27;20027;-71
2021/12/29 11:27:37;;;;;;;2.53;1.05;;;11.90;75.40;;;;;;5133027;27;20106;-71
2021/12/29 11:30:10;;;;;;;1.77;1.00;;;12.00;75.20;;;;;;5131851;27;20054;-71
2021/12/29 11:32:42;;;;;;;3.53;1.25;;;12.10;74.80;;;;;;5130545;27;20042;-72
2021/12/29 11:35:14;;;;;;;2.97;1.52;;;12.10;75.00;;;;;;5110151;27;20073;-71
2021/12/29 11:37:44;;;;;;;2.17;1.27;;;12.20;74.70;;;;;;5131971;27;20015;-72
2021/12/29 11:40:12;;;;;;;3.05;1.00;;;12.30;74.90;;;;;;5133996;27;20019;-72
2021/12/29 11:42:38;;;;;;;3.55;2.03;;;12.40;75.00;;;;;;5132136;27;20021;-72
2021/12/29 11:45:05;;;;;;;5.60;1.58;;;12.50;75.00;;;;;;5132123;27;20122;-72
2021/12/29 11:47:31;;;;;;;3.40;1.30;;;12.50;74.70;;;;;;5125482;27;20031;-72
2021/12/29 11:49:57;;;;;;;2.00;1.33;;;12.60;74.50;;;;;;5111825;27;20038;-72
2021/12/29 11:52:42;;;;;;;4.82;1.33;;;12.70;74.30;;;;;;5111701;27;20203;-72
2021/12/29 11:55:19;;;;;;;2.92;1.50;;;12.70;73.80;;;;;;5113945;27;20102;-72
2021/12/29 11:57:45;;;;;;;3.33;1.23;;;12.80;73.70;;;;;;5133820;27;20035;-73
2021/12/29 12:00:21;;;;;;;3.22;1.48;;;12.90;73.70;;;;;;5126505;27;20149;-73
2021/12/29 12:02:49;;;;;;;4.07;1.98;;;12.90;72.80;;;;;;5104993;27;20126;-72
2021/12/29 12:05:17;;;;;;;6.07;1.88;;;13.00;72.70;;;;;;5131942;27;20474;-72
2021/12/29 12:07:44;;;;;;;3.78;2.05;;;13.00;72.90;;;;;;5130580;27;20031;-72
2021/12/29 12:10:34;;;;;;;6.18;2.50;;;13.00;72.80;;;;;;5130455;27;20108;-73
2021/12/29 12:13:02;;;;;;;4.43;1.40;;;13.10;71.90;;;;;;5130666;27;20028;-72
2021/12/29 12:15:34;;;;;;;1.73;0.95;;;13.10;72.30;;;;;;5131072;27;20042;-72
2021/12/29 12:18:06;;;;;;;1.88;0.82;;;13.10;71.50;;;;;;5124363;27;20027;-72
2021/12/29 12:20:48;;;;;;;3.58;1.10;;;13.10;71.60;;;;;;5113997;27;20031;-72
2021/12/29 12:23:29;;;;;;;2.78;1.33;;;13.00;70.90;;;;;;5130240;27;20076;-72
2021/12/29 12:26:10;;;;;;;2.28;1.00;;;13.00;71.10;;;;;;5130102;27;20058;-72
2021/12/29 12:28:47;;;;;;;2.03;1.10;;;13.00;71.30;;;;;;5127696;27;20072;-72
2021/12/29 12:31:29;;;;;;;10.30;4.93;;;12.90;71.80;;;;;;5130501;27;20074;-72
2021/12/29 12:34:09;;;;;;;5.28;1.80;;;12.90;71.30;;;;;;5109555;28;20194;-73
2021/12/29 12:36:35;;;;;;;1.98;1.33;;;12.90;71.10;;;;;;5112640;27;20027;-72
2021/12/29 12:39:12;;;;;;;1.75;1.00;;;12.90;71.60;;;;;;5128053;27;20030;-73
2021/12/29 12:41:41;;;;;;;2.38;1.23;;;12.90;71.00;;;;;;5132308;28;20065;-72
2021/12/29 12:44:07;;;;;;;6.57;1.25;;;12.90;71.50;;;;;;5131170;28;20030;-72
2021/12/29 12:46:36;;;;;;;2.38;1.33;;;12.90;71.60;;;;;;5128850;28;20387;-73
2021/12/29 12:49:22;;;;;;;5.65;2.60;;;12.90;71.40;;;;;;5127985;28;20035;-73
2021/12/29 12:51:58;;;;;;;4.05;1.85;;;12.90;71.40;;;;;;5132407;28;20019;-72
2021/12/29 12:54:29;;;;;;;4.13;1.17;;;12.90;71.60;;;;;;5129112;28;20027;-73